Time;durP1;ratioP1;P1;durP2;ratioP2;P2;SDS_P1;SDS_P2;PMS_P1;PMS_P2;Temp;Humidity;BMP_temperature;BMP_pressure;BME280_temperature;BME280_humidity;BME280_pressure;Samples;Min_cycle;Max_cycle;Signal;HPM_P1;HPM_P2
2022/12/12 00:02:56;;;;;;;14.95;9.48;;;;;;;-0.65;71.24;98665.22;7604237;32;37878;-82
2022/12/12 00:07:12;;;;;;;16.48;9.82;;;;;;;-0.45;70.02;98665.75;7603150;32;38049;-82
2022/12/12 00:11:29;;;;;;;16.23;10.18;;;;;;;-0.70;70.59;98668.56;7604129;32;39479;-82
2022/12/12 00:15:45;;;;;;;19.25;9.50;;;;;;;-0.78;70.26;98660.84;7603630;32;39913;-82
2022/12/12 00:20:02;;;;;;;15.98;9.45;;;;;;;-0.60;69.75;98666.16;7603890;32;38046;-83
2022/12/12 00:24:18;;;;;;;17.58;8.98;;;;;;;-0.64;69.97;98677.53;7603787;32;37204;-82
2022/12/12 00:28:34;;;;;;;16.55;8.57;;;;;;;-0.53;69.53;98678.66;7603512;32;40168;-83
2022/12/12 00:32:51;;;;;;;16.27;9.30;;;;;;;-0.99;70.59;98687.00;7603450;32;40680;-82
2022/12/12 00:37:07;;;;;;;17.80;9.50;;;;;;;-0.96;70.56;98691.13;7603390;32;37952;-83
2022/12/12 00:41:23;;;;;;;18.02;9.95;;;;;;;-1.19;71.05;98700.63;7607330;32;37090;-82
2022/12/12 00:45:39;;;;;;;17.92;9.43;;;;;;;-0.58;69.54;98706.09;7605891;32;40140;-83
2022/12/12 00:49:56;;;;;;;15.50;8.75;;;;;;;-1.21;71.05;98713.41;7607204;32;40779;-82
2022/12/12 00:54:12;;;;;;;15.50;9.85;;;;;;;-0.70;70.17;98715.94;7606990;32;37447;-83
2022/12/12 00:58:29;;;;;;;17.17;9.77;;;;;;;-1.00;70.73;98727.38;7606946;32;37074;-82
2022/12/12 01:02:45;;;;;;;17.87;10.93;;;;;;;-0.65;70.86;98703.50;7607067;32;40031;-83
2022/12/12 01:07:01;;;;;;;15.15;9.55;;;;;;;-1.27;72.09;98706.25;7605077;32;40052;-82
2022/12/12 01:11:18;;;;;;;15.95;9.77;;;;;;;-0.82;71.16;98703.28;7606927;32;37810;-83
2022/12/12 01:15:34;;;;;;;16.30;10.15;;;;;;;-0.52;70.09;98699.81;7606646;32;37904;-83
2022/12/12 01:19:50;;;;;;;18.98;10.40;;;;;;;-0.69;70.20;98696.13;7606866;32;39387;-83
2022/12/12 01:24:07;;;;;;;20.40;10.50;;;;;;;-0.59;69.47;98683.88;7606714;32;39940;-82
2022/12/12 01:28:23;;;;;;;21.25;10.90;;;;;;;-0.85;69.62;98690.34;7605582;32;38793;-83
2022/12/12 01:32:39;;;;;;;17.37;9.38;;;;;;;-1.03;70.70;98696.53;7606690;32;37328;-83
2022/12/12 01:36:55;;;;;;;16.65;8.82;;;;;;;-1.07;70.46;98690.00;7606044;32;39393;-82
2022/12/12 01:41:13;;;;;;;15.85;7.90;;;;;;;-0.99;73.87;98678.19;7606491;32;41205;-82
2022/12/12 01:45:57;;;;;;;12.90;8.32;;;;;;;-0.55;68.39;98673.53;7606331;32;38664;-82
2022/12/12 01:50:13;;;;;;;16.87;9.52;;;;;;;-0.92;68.29;98686.12;7605695;32;37993;-81
2022/12/12 01:54:38;;;;;;;17.87;10.27;;;;;;;-1.16;69.23;98676.09;7606336;32;40126;-82
2022/12/12 01:58:55;;;;;;;16.40;9.88;;;;;;;-1.17;69.79;98677.16;7605343;32;40015;-82
2022/12/12 02:03:11;;;;;;;19.02;9.10;;;;;;;-0.77;67.52;98676.66;7606295;32;38648;-82
2022/12/12 02:07:27;;;;;;;16.02;8.52;;;;;;;-0.92;67.97;98675.44;7604911;32;37723;-83
2022/12/12 02:11:46;;;;;;;16.90;9.90;;;;;;;-1.05;68.15;98681.72;7606299;32;39412;-82
2022/12/12 02:16:50;;;;;;;16.12;9.60;;;;;;;-1.01;67.80;98677.59;7605990;32;39790;-83
2022/12/12 02:21:25;;;;;;;16.73;9.35;;;;;;;-1.00;67.64;98680.03;7602572;32;38498;-82
2022/12/12 02:26:15;;;;;;;16.95;10.07;;;;;;;-1.20;67.65;98698.16;7605735;32;37598;-83
2022/12/12 02:30:53;;;;;;;15.27;10.50;;;;;;;-1.80;70.14;98696.84;7606042;32;40172;-83
2022/12/12 02:35:33;;;;;;;16.00;10.35;;;;;;;-1.37;68.79;98692.56;7605459;32;40016;-82
2022/12/12 02:40:06;;;;;;;17.67;9.52;;;;;;;-1.58;68.88;98689.28;7605519;32;37588;-83
2022/12/12 02:44:33;;;;;;;17.90;9.73;;;;;;;-1.10;67.44;98684.25;7605785;32;37393;-82
2022/12/12 02:49:03;;;;;;;18.75;10.18;;;;;;;-1.84;68.76;98700.19;7602990;32;39608;-82
2022/12/12 02:53:21;;;;;;;18.10;9.88;;;;;;;-1.86;69.72;98697.75;7604775;32;39939;-82
2022/12/12 02:57:40;;;;;;;19.25;10.68;;;;;;;-1.93;70.26;98694.31;7605531;32;37849;-82
2022/12/12 03:02:14;;;;;;;16.75;10.00;;;;;;;-1.86;69.48;98699.56;7605686;32;38072;-83
2022/12/12 03:11:56;;;;;;;19.62;9.70;;;;;;;-0.91;65.59;98704.63;7605679;32;40914;-82
2022/12/12 03:16:33;;;;;;;19.52;10.07;;;;;;;-1.03;65.03;98709.09;7603739;32;38883;-83
2022/12/12 03:21:20;;;;;;;16.10;9.88;;;;;;;-1.98;67.50;98715.50;7605558;32;37172;-83
2022/12/12 03:25:57;;;;;;;22.00;11.00;;;;;;;-1.09;64.41;98707.31;7603972;32;39482;-83
2022/12/12 03:30:18;;;;;;;17.62;10.18;;;;;;;-1.36;64.83;98713.75;7604055;32;40883;-82
2022/12/12 03:39:00;;;;;;;18.77;9.95;;;;;;;-1.67;64.73;98714.66;7604637;32;37650;-82
2022/12/12 03:43:26;;;;;;;16.50;9.38;;;;;;;-1.32;63.66;98704.22;7605107;32;39245;-81
2022/12/12 03:47:59;;;;;;;17.02;9.55;;;;;;;-0.83;62.15;98714.22;7603944;32;39735;-82
2022/12/12 03:52:31;;;;;;;22.17;11.23;;;;;;;-1.53;63.62;98718.03;7604656;32;38563;-82
2022/12/12 03:57:08;;;;;;;18.70;9.65;;;;;;;-1.44;62.35;98718.56;7603222;32;37380;-82
2022/12/12 04:01:28;;;;;;;17.52;10.65;;;;;;;-1.09;61.60;98731.38;7603595;32;39309;-81
2022/12/12 04:06:25;;;;;;;18.73;10.15;;;;;;;-1.53;62.12;98726.84;7604247;32;40860;-82
2022/12/12 04:15:27;;;;;;;18.37;10.65;;;;;;;-1.65;62.62;98725.94;7605667;32;37154;-83
2022/12/12 04:24:44;;;;;;;14.27;10.15;;;;;;;-1.51;63.31;98740.81;7606263;32;39945;-81
2022/12/12 04:29:11;;;;;;;20.37;10.15;;;;;;;-1.97;64.22;98743.84;7606461;32;37819;-82
2022/12/12 04:33:34;;;;;;;18.05;10.20;;;;;;;-1.34;62.92;98742.94;7606446;32;36858;-83
2022/12/12 04:38:05;;;;;;;19.20;11.10;;;;;;;-1.95;63.54;98757.81;7605825;32;39052;-82
2022/12/12 04:42:24;;;;;;;19.48;10.70;;;;;;;-2.27;65.76;98771.97;7605770;32;40864;-83
2022/12/12 04:46:41;;;;;;;16.73;9.85;;;;;;;-1.70;63.31;98772.00;7605997;32;38422;-83
2022/12/12 04:51:00;;;;;;;20.45;10.50;;;;;;;-2.00;64.71;98787.84;7607384;32;37183;-82
2022/12/12 04:55:27;;;;;;;19.27;10.63;;;;;;;-2.15;63.86;98790.78;7606963;32;39380;-82
2022/12/12 04:59:44;;;;;;;20.67;11.35;;;;;;;-1.90;62.88;98787.34;7605957;32;40018;-82
2022/12/12 05:04:12;;;;;;;19.37;11.07;;;;;;;-2.41;63.98;98790.94;7607129;32;37635;-82
2022/12/12 05:08:35;;;;;;;19.02;9.27;;;;;;;-2.35;62.67;98806.91;7580148;33;37228;-82
2022/12/12 05:12:56;;;;;;;18.95;10.30;;;;;;;-2.10;61.22;98807.00;7605756;32;39405;-82
2022/12/12 05:17:17;;;;;;;20.92;11.12;;;;;;;-2.52;62.80;98800.41;7605535;32;40641;-83
2022/12/12 05:21:33;;;;;;;23.95;11.65;;;;;;;-2.27;60.61;98804.00;7606828;32;37939;-82
2022/12/12 05:25:49;;;;;;;18.83;10.13;;;;;;;-1.93;59.53;98815.34;7605649;32;37390;-82
2022/12/12 05:30:06;;;;;;;21.85;10.00;;;;;;;-2.18;60.33;98817.91;7606778;32;39037;-82
2022/12/12 05:34:23;;;;;;;20.92;11.02;;;;;;;-1.98;59.71;98823.19;7606337;32;39936;-82
2022/12/12 05:38:40;;;;;;;22.80;10.25;;;;;;;-1.83;59.77;98819.37;7605732;32;38000;-82
2022/12/12 05:42:56;;;;;;;22.48;12.18;;;;;;;-2.50;60.87;98819.69;7606520;32;37008;-83
2022/12/12 05:47:12;;;;;;;17.90;10.68;;;;;;;-2.11;60.03;98810.69;7606394;32;40157;-83
2022/12/12 05:51:29;;;;;;;22.52;12.20;;;;;;;-1.89;59.13;98800.50;7606566;32;40866;-83
2022/12/12 05:55:45;;;;;;;18.60;10.98;;;;;;;-1.86;59.84;98814.47;7606198;32;38199;-83
2022/12/12 06:00:03;;;;;;;22.20;10.93;;;;;;;-2.19;59.77;98816.31;7606492;32;37907;-82
2022/12/12 06:04:19;;;;;;;20.35;11.63;;;;;;;-1.89;59.41;98810.38;7605991;32;39397;-82
2022/12/12 06:08:36;;;;;;;20.12;10.23;;;;;;;-2.45;60.03;98833.22;7605843;32;40604;-82
2022/12/12 06:12:52;;;;;;;20.42;10.77;;;;;;;-2.64;61.88;98837.59;7604907;32;38828;-83
2022/12/12 06:17:08;;;;;;;16.65;10.15;;;;;;;-2.13;59.52;98830.66;7605946;32;37193;-83
2022/12/12 06:21:25;;;;;;;19.58;11.52;;;;;;;-1.64;58.51;98831.78;7606308;32;39315;-82
2022/12/12 06:25:41;;;;;;;21.33;10.77;;;;;;;-2.39;60.49;98831.59;7605764;32;40870;-82
2022/12/12 06:29:57;;;;;;;19.77;11.82;;;;;;;-1.74;58.77;98842.16;7606018;32;38795;-82
2022/12/12 06:34:13;;;;;;;21.30;11.50;;;;;;;-1.94;59.13;98847.59;7605759;32;38042;-82
2022/12/12 06:38:33;;;;;;;20.98;11.50;;;;;;;-2.08;59.67;98850.34;7605065;32;39829;-83
2022/12/12 06:42:49;;;;;;;19.27;10.63;;;;;;;-2.42;59.86;98859.50;7605928;32;40846;-82
2022/12/12 06:47:05;;;;;;;20.67;11.52;;;;;;;-2.63;61.04;98870.47;7605430;32;38732;-82
2022/12/12 06:51:35;;;;;;;22.62;12.05;;;;;;;-2.40;60.62;98862.78;7580069;33;38156;-83
2022/12/12 06:55:51;;;;;;;19.98;11.68;;;;;;;-2.19;60.27;98868.88;7593826;32;39377;-82
2022/12/12 07:00:10;;;;;;;25.73;12.13;;;;;;;-2.65;61.15;98881.34;7604842;32;40002;-83
2022/12/12 07:04:26;;;;;;;14.82;8.27;;;;;;;-2.14;59.80;98877.91;7605524;32;37991;-83
2022/12/12 07:08:43;;;;;;;38.40;18.70;;;;;;;-1.93;58.05;98879.47;7605375;32;37112;-82
2022/12/12 07:12:59;;;;;;;25.98;15.40;;;;;;;-2.50;59.40;98894.44;7605386;32;39420;-83
2022/12/12 07:17:15;;;;;;;15.80;10.32;;;;;;;-2.73;60.39;98890.38;7605251;32;39854;-83
2022/12/12 07:21:32;;;;;;;19.55;12.13;;;;;;;-2.13;60.02;98884.88;7605397;32;37613;-82
2022/12/12 07:25:48;;;;;;;18.80;11.45;;;;;;;-2.11;62.10;98898.81;7604104;32;37848;-82
2022/12/12 07:30:05;;;;;;;22.83;10.90;;;;;;;-1.83;63.12;98910.22;7604436;32;39425;-82
2022/12/12 07:34:21;;;;;;;20.67;10.80;;;;;;;-1.45;57.37;98907.56;7605099;32;39948;-82
2022/12/12 07:38:38;;;;;;;22.75;10.23;;;;;;;-1.84;58.05;98914.75;7604432;32;37929;-84
2022/12/12 07:42:54;;;;;;;21.33;12.02;;;;;;;-1.56;56.09;98921.63;7605068;32;37291;-84
2022/12/12 07:47:10;;;;;;;18.17;10.43;;;;;;;-2.37;57.33;98926.44;7604908;32;39260;-82
2022/12/12 07:51:27;;;;;;;16.85;10.45;;;;;;;-1.75;56.50;98924.16;7608084;32;39926;-82
2022/12/12 07:55:43;;;;;;;21.20;11.23;;;;;;;-1.92;56.76;98929.16;7607788;32;38060;-82
2022/12/12 08:00:00;;;;;;;22.33;11.93;;;;;;;-1.63;55.19;98920.84;7607504;32;37291;-82
2022/12/12 08:04:16;;;;;;;20.10;10.75;;;;;;;-1.28;55.07;98923.91;7607487;32;39172;-83
2022/12/12 08:08:32;;;;;;;21.02;10.38;;;;;;;-1.62;54.17;98939.34;7607621;32;40364;-83
2022/12/12 08:12:49;;;;;;;15.38;9.27;;;;;;;-0.72;53.70;98922.25;7606290;32;37915;-85
2022/12/12 08:17:05;;;;;;;21.30;11.15;;;;;;;-0.37;55.44;98918.22;7606254;32;38162;-82
2022/12/12 08:21:22;;;;;;;20.70;10.80;;;;;;;-0.03;53.57;98922.19;7607726;32;40215;-82
2022/12/12 08:25:41;;;;;;;18.50;9.45;;;;;;;0.42;52.24;98918.34;7607633;32;40609;-81
2022/12/12 08:29:58;;;;;;;21.60;10.32;;;;;;;-0.18;53.24;98917.19;7606392;32;37743;-82
2022/12/12 08:34:14;;;;;;;18.92;10.85;;;;;;;0.06;52.77;98922.69;7607512;32;37917;-83
2022/12/12 08:38:30;;;;;;;21.95;9.90;;;;;;;-0.20;54.37;98913.91;7605774;32;39376;-82
2022/12/12 08:42:46;;;;;;;16.95;9.75;;;;;;;0.12;52.93;98921.78;7607446;32;40048;-82
2022/12/12 08:47:03;;;;;;;18.37;11.00;;;;;;;0.33;50.71;98921.31;7607420;32;37833;-83
2022/12/12 08:51:19;;;;;;;22.20;10.00;;;;;;;0.02;52.44;98933.03;7606195;32;37413;-82
2022/12/12 08:55:37;;;;;;;20.30;11.02;;;;;;;0.23;51.43;98945.16;7602177;32;39237;-81
2022/12/12 08:59:53;;;;;;;16.80;9.02;;;;;;;0.32;51.26;98949.16;7615165;32;40926;-83
2022/12/12 09:04:10;;;;;;;16.85;10.43;;;;;;;0.41;50.78;98943.50;7626059;32;37746;-83
2022/12/12 09:08:26;;;;;;;14.48;8.10;;;;;;;-0.43;52.61;98946.69;7605786;32;37016;-82
2022/12/12 09:12:42;;;;;;;16.50;8.65;;;;;;;-0.22;52.07;98950.84;7604444;32;40025;-82
2022/12/12 09:16:58;;;;;;;19.33;9.63;;;;;;;-0.29;52.99;98942.84;7604175;32;39950;-81
2022/12/12 09:21:15;;;;;;;17.33;9.13;;;;;;;-0.48;52.61;98942.00;7614268;32;38658;-80
2022/12/12 09:25:31;;;;;;;15.82;8.05;;;;;;;0.16;51.71;98955.16;7612492;32;37297;-83
2022/12/12 09:29:47;;;;;;;14.25;9.40;;;;;;;-0.55;53.00;98949.28;7606314;32;39300;-84
2022/12/12 09:34:06;;;;;;;19.27;9.50;;;;;;;-0.62;53.08;98965.41;7611612;32;39894;-83
2022/12/12 09:38:24;;;;;;;15.77;8.75;;;;;;;-0.21;51.99;98972.03;7613179;32;38557;-82
2022/12/12 09:42:48;;;;;;;15.98;9.05;;;;;;;-0.86;54.34;98959.00;7630427;32;36388;-83
2022/12/12 09:47:10;;;;;;;13.35;8.20;;;;;;;-1.16;53.31;98950.78;7606353;32;39987;-83
2022/12/12 09:51:26;;;;;;;18.20;9.60;;;;;;;-0.57;53.70;98943.31;7606124;32;40958;-83
2022/12/12 09:56:00;;;;;;;16.98;9.02;;;;;;;-0.50;52.58;98948.63;7604752;32;37781;-82
2022/12/12 10:00:17;;;;;;;14.93;8.68;;;;;;;-0.77;53.64;98940.81;7605588;32;37872;-83
2022/12/12 10:04:52;;;;;;;16.92;9.23;;;;;;;-0.31;52.51;98944.09;7605315;32;39450;-82
2022/12/12 10:09:38;;;;;;;17.75;10.27;;;;;;;-0.09;52.63;98958.72;7605115;32;40699;-83
2022/12/12 10:13:59;;;;;;;17.65;10.55;;;;;;;-0.43;53.24;98955.56;7604897;32;38720;-82
2022/12/12 10:18:27;;;;;;;15.88;8.68;;;;;;;-0.52;54.19;98962.22;7604656;32;36222;-82
2022/12/12 10:22:59;;;;;;;16.62;9.80;;;;;;;-0.62;53.29;98959.22;7604428;32;39484;-82
2022/12/12 10:27:15;;;;;;;14.38;8.18;;;;;;;-0.39;53.55;98950.59;7606160;32;40789;-82
2022/12/12 10:32:06;;;;;;;16.37;8.52;;;;;;;0.16;51.77;98957.84;7605943;32;37867;-81
2022/12/12 10:36:41;;;;;;;11.77;7.62;;;;;;;-0.57;53.09;98946.84;7606079;32;37224;-83
2022/12/12 10:41:06;;;;;;;15.90;8.55;;;;;;;-0.59;52.23;98956.09;7605584;32;40230;-81
2022/12/12 10:45:29;;;;;;;14.80;8.23;;;;;;;-0.38;52.56;98952.19;7603538;32;39870;-81
2022/12/12 10:49:45;;;;;;;11.10;6.97;;;;;;;0.22;52.10;98951.56;7604526;32;38480;-81
2022/12/12 10:54:04;;;;;;;14.25;8.60;;;;;;;0.23;52.03;98953.22;7606003;32;37032;-82
2022/12/12 10:58:25;;;;;;;12.85;8.00;;;;;;;-0.92;54.13;98959.88;7603881;32;39460;-80
2022/12/12 11:02:43;;;;;;;14.98;8.05;;;;;;;-0.09;52.26;98942.63;7605855;32;40072;-80
2022/12/12 11:07:01;;;;;;;12.95;7.05;;;;;;;-0.99;53.53;98969.81;7605673;32;37835;-82
2022/12/12 11:11:20;;;;;;;11.02;6.72;;;;;;;-0.62;53.21;98959.22;7605777;32;37268;-81
2022/12/12 11:15:43;;;;;;;14.13;8.38;;;;;;;-0.79;53.57;98969.69;7605829;32;39672;-82
2022/12/12 11:20:01;;;;;;;;;;;;;;;-1.15;53.39;98980.00;7605922;32;40866;-82
2022/12/12 11:24:21;;;;;;;13.45;8.00;;;;;;;-0.90;53.98;98978.38;7605690;32;38233;-79
2022/12/12 11:28:39;;;;;;;15.75;8.98;;;;;;;-0.08;54.00;98968.41;7605496;32;37913;-81
2022/12/12 11:32:55;;;;;;;13.95;8.30;;;;;;;0.10;54.14;98977.47;7604294;32;40147;-80
2022/12/12 11:37:19;;;;;;;16.58;9.32;;;;;;;0.37;54.36;98984.16;7605009;32;39852;-80
2022/12/12 11:42:00;;;;;;;13.05;8.13;;;;;;;0.42;55.47;98988.88;7603939;32;38022;-81
2022/12/12 11:46:19;;;;;;;20.23;10.02;;;;;;;0.15;56.61;98997.19;7605028;32;38133;-80
2022/12/12 11:50:43;;;;;;;18.23;9.40;;;;;;;-0.57;58.35;99003.06;7604062;32;40138;-81
2022/12/12 11:55:00;;;;;;;15.77;9.10;;;;;;;-0.17;57.56;99004.56;7602753;32;40948;-81
2022/12/12 11:59:27;;;;;;;19.30;9.95;;;;;;;-0.12;58.16;98994.00;7603944;32;37728;-80
2022/12/12 12:03:55;;;;;;;13.80;8.10;;;;;;;-0.80;58.36;99000.94;7607937;32;37148;-80
2022/12/12 12:08:58;;;;;;;11.93;8.32;;;;;;;-0.16;57.62;99002.69;7604317;32;40078;-80
2022/12/12 12:13:17;;;;;;;12.68;8.15;;;;;;;-0.79;58.90;99010.63;7601421;32;40926;-80
2022/12/12 12:18:01;;;;;;;16.67;9.75;;;;;;;-0.62;59.98;99007.41;7595943;32;37465;-80
2022/12/12 12:22:45;;;;;;;15.75;9.15;;;;;;;-1.62;62.97;99008.00;7604005;32;37070;-80
2022/12/12 12:27:21;;;;;;;12.52;7.82;;;;;;;-1.03;61.03;99006.06;7598525;32;40462;-81
2022/12/12 12:31:52;;;;;;;19.15;10.68;;;;;;;-1.18;61.32;98992.97;7603638;32;39887;-80
2022/12/12 12:36:11;;;;;;;15.77;8.60;;;;;;;-1.01;62.32;99004.00;7605789;32;37734;-79
2022/12/12 12:40:51;;;;;;;16.85;9.90;;;;;;;-0.42;59.89;98993.88;7605799;32;37344;-81
2022/12/12 12:45:44;;;;;;;15.30;9.23;;;;;;;-0.78;61.40;99006.94;7605077;32;39535;-81
2022/12/12 12:50:24;;;;;;;16.98;8.60;;;;;;;-1.23;62.56;99000.81;7606381;32;40805;-81
2022/12/12 12:54:44;;;;;;;12.45;7.80;;;;;;;-1.45;64.11;99006.50;7606233;32;37482;-81
2022/12/12 12:59:03;;;;;;;14.85;8.63;;;;;;;-1.23;64.95;99009.66;7608960;32;37062;-82
2022/12/12 13:03:26;;;;;;;14.57;9.07;;;;;;;-1.09;63.86;99028.31;7611086;32;38126;-82
2022/12/12 13:07:49;;;;;;;14.25;8.15;;;;;;;-1.46;64.76;99028.09;7611678;32;40492;-82
2022/12/12 13:12:37;;;;;;;13.60;7.47;;;;;;;-1.72;65.85;99032.50;7604339;32;37416;-82
2022/12/12 13:16:54;;;;;;;15.63;8.95;;;;;;;-1.28;64.38;99041.56;7598272;32;35441;-81
2022/12/12 13:21:12;;;;;;;13.77;9.02;;;;;;;-1.35;64.28;99032.75;7606743;32;39457;-81
2022/12/12 13:25:37;;;;;;;15.35;8.38;;;;;;;-1.20;62.84;99032.50;7606810;32;40913;-82
2022/12/12 13:30:13;;;;;;;14.52;9.02;;;;;;;-1.24;63.44;99039.28;7607010;32;38999;-81
2022/12/12 13:34:32;;;;;;;18.95;10.05;;;;;;;-0.89;63.02;99033.56;7605449;32;37688;-81
2022/12/12 13:38:51;;;;;;;18.17;9.73;;;;;;;-1.16;63.60;99044.41;7606596;32;38327;-82
2022/12/12 13:43:26;;;;;;;15.60;8.80;;;;;;;-1.22;64.83;99039.94;7605562;32;39841;-82
2022/12/12 13:47:54;;;;;;;15.05;8.88;;;;;;;-0.83;63.84;99041.56;7604538;32;37991;-82
2022/12/12 13:52:41;;;;;;;12.07;7.45;;;;;;;-0.97;64.96;99042.66;7605019;32;36910;-83
2022/12/12 13:56:57;;;;;;;15.77;8.98;;;;;;;-1.25;65.05;99051.84;7536308;32;2194311;-84
2022/12/12 14:01:45;;;;;;;16.45;9.70;;;;;;;-1.05;64.59;99057.13;7605976;32;40815;-84
2022/12/12 14:06:10;;;;;;;10.20;6.40;;;;;;;-1.62;64.25;99064.13;7592078;32;37337;-84
2022/12/12 14:10:40;;;;;;;15.00;8.23;;;;;;;-1.29;63.09;99072.03;7610946;32;36474;-83
2022/12/12 14:15:06;;;;;;;14.98;9.25;;;;;;;-1.28;62.86;99079.00;7605046;32;39320;-84
2022/12/12 14:19:34;;;;;;;14.23;8.70;;;;;;;-1.22;61.93;99088.88;7605239;32;39669;-83
2022/12/12 14:23:51;;;;;;;17.65;9.18;;;;;;;-1.40;62.15;99080.72;7604197;32;38496;-82
2022/12/12 14:28:21;;;;;;;14.85;10.10;;;;;;;-1.61;62.91;99098.66;7601937;32;37163;-83
2022/12/12 14:32:50;;;;;;;16.20;10.10;;;;;;;-0.81;60.60;99074.28;7603654;32;40035;-83
2022/12/12 14:37:43;;;;;;;19.98;9.95;;;;;;;-0.81;60.90;99084.97;7602854;32;39731;-83
2022/12/12 14:42:07;;;;;;;15.15;8.95;;;;;;;-0.48;60.14;99083.94;7602966;32;37723;-84
2022/12/12 14:46:23;;;;;;;17.20;9.32;;;;;;;-0.54;60.56;99082.12;7604131;32;37888;-84
2022/12/12 14:50:43;;;;;;;13.32;7.80;;;;;;;-0.66;59.44;99089.19;7605464;32;39421;-82
2022/12/12 14:55:02;;;;;;;13.02;8.00;;;;;;;-0.49;58.33;99089.50;7602459;32;40027;-85
2022/12/12 14:59:25;;;;;;;15.88;9.18;;;;;;;-0.36;58.89;99091.25;7602404;32;37668;-85
2022/12/12 15:03:49;;;;;;;16.95;9.02;;;;;;;0.03;57.71;99100.03;7605280;32;37672;-85
2022/12/12 15:08:17;;;;;;;15.00;8.45;;;;;;;-0.77;59.51;99102.25;7604240;32;39436;-85
2022/12/12 15:12:42;;;;;;;15.13;9.13;;;;;;;-0.46;59.18;99105.16;7604280;32;40424;-84
2022/12/12 15:17:05;;;;;;;15.75;9.07;;;;;;;-0.95;59.58;99110.16;7603026;32;38647;-86
2022/12/12 15:21:25;;;;;;;19.42;10.23;;;;;;;-0.27;58.41;99116.75;7605367;32;36597;-85
2022/12/12 15:26:01;;;;;;;16.45;9.60;;;;;;;-0.52;59.31;99114.84;7603774;32;40137;-85
2022/12/12 15:30:32;;;;;;;17.02;10.25;;;;;;;-0.51;59.00;99115.69;7621640;32;39560;-84
2022/12/12 15:35:09;;;;;;;16.52;9.48;;;;;;;-0.55;59.75;99120.66;7611236;32;37803;-83
2022/12/12 15:39:28;;;;;;;18.40;10.15;;;;;;;-0.59;59.36;99124.78;7603832;32;37314;-84
2022/12/12 15:43:44;;;;;;;17.95;9.85;;;;;;;-0.70;59.96;99125.47;7604614;32;39064;-83
2022/12/12 15:48:05;;;;;;;18.08;9.95;;;;;;;-0.61;59.35;99121.50;7604201;32;39960;-83
2022/12/12 15:52:26;;;;;;;14.40;8.70;;;;;;;-0.82;60.55;99128.81;7604635;32;37786;-83
2022/12/12 15:56:48;;;;;;;15.43;9.23;;;;;;;-1.35;61.87;99131.72;7604295;32;37069;-84
2022/12/12 16:01:06;;;;;;;16.58;8.65;;;;;;;-0.50;60.02;99126.19;7603190;32;39325;-84
2022/12/12 16:05:37;;;;;;;13.45;8.45;;;;;;;-0.79;60.27;99136.44;7603954;32;40025;-84
2022/12/12 16:10:24;;;;;;;17.15;8.90;;;;;;;-0.82;59.65;99136.84;7605619;32;38738;-86
2022/12/12 16:14:42;;;;;;;14.63;8.60;;;;;;;-0.53;59.86;99131.97;7606451;32;36913;-85
2022/12/12 16:18:59;;;;;;;13.90;8.75;;;;;;;-1.21;61.21;99144.03;7606429;32;39318;-85
2022/12/12 16:23:41;;;;;;;12.90;7.35;;;;;;;-1.25;61.06;99142.78;7607384;32;40035;-85
2022/12/12 16:28:19;;;;;;;10.88;6.93;;;;;;;-0.56;59.12;99132.41;7606477;32;37977;-84
2022/12/12 16:32:41;;;;;;;14.35;7.68;;;;;;;-1.29;61.27;99136.22;7605722;32;37810;-80
2022/12/12 16:36:57;;;;;;;11.60;7.15;;;;;;;-1.51;61.12;99123.09;7606534;32;40048;-81
2022/12/12 16:41:15;;;;;;;14.20;7.78;;;;;;;-1.36;61.12;99130.09;7606646;32;40734;-80
2022/12/12 16:45:32;;;;;;;10.13;7.85;;;;;;;-1.34;61.34;99133.38;7605932;32;36932;-81
2022/12/12 16:49:50;;;;;;;11.73;7.60;;;;;;;-2.02;62.88;99122.97;7605061;32;37397;-82
2022/12/12 16:54:18;;;;;;;10.75;7.50;;;;;;;-1.31;61.72;99130.28;7605202;32;39361;-82
2022/12/12 16:58:35;;;;;;;11.12;7.18;;;;;;;-1.75;62.08;99134.47;7603210;32;40831;-81
2022/12/12 17:02:51;;;;;;;14.02;7.87;;;;;;;-1.92;63.24;99142.09;7603958;32;37782;-81
2022/12/12 17:07:08;;;;;;;6.55;5.68;;;;;;;-1.44;61.71;99138.31;7606494;32;37353;-84
2022/12/12 17:11:24;;;;;;;10.57;7.50;;;;;;;-1.46;61.98;99129.69;7606622;32;39139;-82
2022/12/12 17:15:43;;;;;;;10.18;7.20;;;;;;;-1.87;62.82;99133.47;7606674;32;38830;-81
2022/12/12 17:19:59;;;;;;;11.75;7.90;;;;;;;-1.12;61.58;99133.06;7604498;32;38099;-79
2022/12/12 17:24:15;;;;;;;19.02;10.82;;;;;;;-1.05;61.28;99141.88;7604823;32;37947;-80
2022/12/12 17:28:33;;;;;;;8.85;6.40;;;;;;;-1.28;63.41;99145.06;7604354;32;39115;-80
2022/12/12 17:32:49;;;;;;;13.73;8.15;;;;;;;-1.29;63.93;99146.09;7605388;32;40103;-86
2022/12/12 17:37:24;;;;;;;9.65;7.05;;;;;;;-1.23;63.87;99151.41;7603461;32;38513;-81
2022/12/12 17:41:41;;;;;;;10.80;7.25;;;;;;;-1.22;64.04;99161.09;7605782;32;35979;-81
2022/12/12 17:46:01;;;;;;;8.43;5.93;;;;;;;-1.51;64.35;99160.53;7605928;32;39147;-82
2022/12/12 17:50:18;;;;;;;15.88;8.50;;;;;;;-1.54;64.62;99165.47;7605137;32;40816;-82
2022/12/12 17:54:35;;;;;;;16.17;9.05;;;;;;;-1.20;63.85;99169.72;7605278;32;37912;-79
2022/12/12 17:58:53;;;;;;;13.80;7.90;;;;;;;-1.00;63.99;99169.69;7607389;32;37951;-84
2022/12/12 18:03:09;;;;;;;11.00;7.40;;;;;;;-1.05;64.09;99165.97;7596743;32;39396;-83
2022/12/12 18:07:27;;;;;;;11.32;8.10;;;;;;;-1.26;64.45;99180.44;7605811;32;41573;-81
2022/12/12 18:11:44;;;;;;;11.93;7.70;;;;;;;-1.26;65.09;99183.97;7605916;32;37897;-83
2022/12/12 18:16:01;;;;;;;11.70;7.43;;;;;;;-1.03;64.74;99177.31;7603885;32;38107;-82
2022/12/12 18:20:18;;;;;;;13.38;7.93;;;;;;;-1.27;65.22;99182.31;7604272;32;39231;-81
2022/12/12 18:24:35;;;;;;;15.85;9.13;;;;;;;-0.89;64.06;99178.06;7605015;32;40039;-82
2022/12/12 18:28:58;;;;;;;13.55;6.90;;;;;;;-1.51;66.34;99186.47;7605706;32;38711;-81
2022/12/12 18:33:15;;;;;;;12.37;7.87;;;;;;;-1.25;65.56;99195.47;7603957;32;37364;-82
2022/12/12 18:37:31;;;;;;;11.57;6.93;;;;;;;-1.19;65.50;99194.63;7604916;32;40046;-80
2022/12/12 18:41:48;;;;;;;11.57;8.15;;;;;;;-1.26;66.58;99205.34;7600088;32;40110;-80
2022/12/12 18:46:09;;;;;;;13.77;8.20;;;;;;;-1.79;67.00;99211.56;7608175;32;37703;-81
2022/12/12 18:50:26;;;;;;;18.20;9.55;;;;;;;-0.80;64.35;99204.38;7595622;32;36963;-82
2022/12/12 18:54:42;;;;;;;14.00;8.02;;;;;;;-1.30;66.15;99204.12;7615274;32;39251;-83
2022/12/12 18:58:59;;;;;;;13.77;8.55;;;;;;;-1.03;65.55;99212.91;7616767;32;40786;-81
2022/12/12 19:03:16;;;;;;;17.05;9.15;;;;;;;-1.00;65.72;99209.81;7605975;32;38563;-82
2022/12/12 19:07:32;;;;;;;17.55;8.85;;;;;;;-1.12;65.84;99227.53;7605837;32;36988;-83
2022/12/12 19:11:49;;;;;;;16.73;9.02;;;;;;;-0.98;65.42;99217.63;7606526;32;39232;-81
2022/12/12 19:16:31;;;;;;;14.63;9.38;;;;;;;-1.45;68.22;99232.94;7625152;32;40052;-81
2022/12/12 19:20:48;;;;;;;20.27;9.75;;;;;;;-1.41;69.00;99223.47;7602995;32;37701;-82
2022/12/12 19:25:05;;;;;;;19.00;10.05;;;;;;;-1.29;69.18;99227.16;7604984;32;37083;-82
2022/12/12 19:29:21;;;;;;;16.58;9.25;;;;;;;-1.60;70.43;99235.84;7604068;32;39968;-82
2022/12/12 19:33:42;;;;;;;14.50;8.02;;;;;;;-1.28;70.45;99260.88;7604554;32;39925;-82
2022/12/12 19:37:58;;;;;;;16.30;10.18;;;;;;;-1.17;69.83;99257.59;7603341;32;37729;-83
2022/12/12 19:42:15;;;;;;;9.32;7.05;;;;;;;-0.86;69.31;99256.09;7603867;32;37364;-80
2022/12/12 19:46:32;;;;;;;16.90;10.02;;;;;;;-1.25;69.34;99265.81;7604277;32;39459;-82
2022/12/12 19:50:48;;;;;;;17.35;10.60;;;;;;;-1.42;69.71;99269.97;7603823;32;39774;-81
2022/12/12 19:55:05;;;;;;;14.63;8.55;;;;;;;-1.12;70.26;99280.22;7603892;32;38617;-83
2022/12/12 19:59:21;;;;;;;18.83;9.52;;;;;;;-1.01;69.20;99290.28;7604216;32;36927;-82
2022/12/12 20:03:40;;;;;;;16.50;9.52;;;;;;;-1.09;69.29;99304.69;7603513;32;39399;-82
2022/12/12 20:07:56;;;;;;;20.27;11.20;;;;;;;-1.09;69.23;99306.56;7604046;32;39915;-81
2022/12/12 20:12:13;;;;;;;16.98;10.63;;;;;;;-1.22;69.61;99305.53;7603770;32;38687;-82
2022/12/12 20:16:29;;;;;;;17.80;10.10;;;;;;;-1.06;70.30;99314.16;7603595;32;37283;-81
2022/12/12 20:20:46;;;;;;;18.35;10.25;;;;;;;-1.40;70.54;99311.50;7602331;32;39294;-81
2022/12/12 20:25:02;;;;;;;19.20;11.27;;;;;;;-0.99;70.03;99317.66;7603238;32;40169;-82
2022/12/12 20:29:18;;;;;;;20.35;10.70;;;;;;;-0.72;68.86;99313.09;7603204;32;38301;-82
2022/12/12 20:33:37;;;;;;;18.02;9.98;;;;;;;-0.43;67.82;99321.63;7603382;32;38018;-82
2022/12/12 20:37:53;;;;;;;15.65;9.00;;;;;;;-0.61;67.47;99317.78;7601796;32;40113;-81